RYR74RW EPKK-LIBP
Flight info
| Callsign | RYR74RW |
|---|---|
| Flight time | 1h 26m |
| Altitude | 38000 |
| Route | BABKO5J BABKO DCT NIDOK DCT KOPRY DCT VELUG/N0345F190 Z924 ETRIN ETRIN2A |
| Aircraft | B738/M-SDE2E3FGHIRWXY/LB1 |
Departure
| Time | 2026-04-25 11:46 |
|---|---|
| Airport | Kraków John Paul II International Airport (EPKK) |
Arrival
| Time | 2026-04-25 13:13 |
|---|---|
| Airport | Abruzzo Airport (LIBP) |
| Time | Latitude | Longitude | Altitude | Speed | Heading |
|---|---|---|---|---|---|
| 2026-04-25 11:12 | 50.07537 | 19.79817 | 789 ft | 0 kts | 258° |
| 2026-04-25 11:41 | 50.07535 | 19.79801 | 789 ft | 4 kts | 259° |
| 2026-04-25 11:41 | 50.07540 | 19.79748 | 789 ft | 6 kts | 308° |
| 2026-04-25 11:41 | 50.07592 | 19.79719 | 789 ft | 10 kts | 348° |
| 2026-04-25 11:42 | 50.07665 | 19.79697 | 789 ft | 10 kts | 1° |
| 2026-04-25 11:42 | 50.07703 | 19.79797 | 788 ft | 13 kts | 79° |
| 2026-04-25 11:42 | 50.07725 | 19.79958 | 789 ft | 17 kts | 77° |
| 2026-04-25 11:42 | 50.07753 | 19.80158 | 789 ft | 21 kts | 77° |
| 2026-04-25 11:43 | 50.07785 | 19.80333 | 789 ft | 11 kts | 46° |
| 2026-04-25 11:43 | 50.07842 | 19.80338 | 789 ft | 5 kts | 344° |
| 2026-04-25 11:43 | 50.07849 | 19.80335 | 789 ft | 0 kts | 346° |
| 2026-04-25 11:44 | 50.07869 | 19.80327 | 789 ft | 8 kts | 346° |
| 2026-04-25 11:45 | 50.07955 | 19.80298 | 788 ft | 14 kts | 347° |
| 2026-04-25 11:45 | 50.08014 | 19.80214 | 788 ft | 12 kts | 276° |
| 2026-04-25 11:45 | 50.07998 | 19.80085 | 789 ft | 12 kts | 257° |
| 2026-04-25 11:45 | 50.07970 | 19.79877 | 788 ft | 46 kts | 256° |
| 2026-04-25 11:46 | 50.07846 | 19.79000 | 790 ft | 117 kts | 258° |
| 2026-04-25 11:46 | 50.07639 | 19.77548 | 1123 ft | 145 kts | 257° |
| 2026-04-25 11:46 | 50.07414 | 19.75950 | 1842 ft | 155 kts | 259° |
| 2026-04-25 11:46 | 50.07171 | 19.74356 | 2692 ft | 161 kts | 258° |
| 2026-04-25 11:47 | 50.06902 | 19.72466 | 3015 ft | 195 kts | 258° |
| 2026-04-25 11:47 | 50.06583 | 19.70260 | 3271 ft | 218 kts | 259° |
| 2026-04-25 11:47 | 50.06142 | 19.67964 | 3880 ft | 228 kts | 244° |
| 2026-04-25 11:47 | 50.05064 | 19.66095 | 4637 ft | 241 kts | 220° |
| 2026-04-25 11:48 | 50.03502 | 19.64974 | 5169 ft | 265 kts | 199° |
| 2026-04-25 11:48 | 50.01599 | 19.64972 | 5742 ft | 286 kts | 172° |
| 2026-04-25 11:48 | 49.99653 | 19.65733 | 6530 ft | 290 kts | 168° |
| 2026-04-25 11:48 | 49.97693 | 19.66497 | 7332 ft | 292 kts | 169° |
| 2026-04-25 11:49 | 49.95692 | 19.67228 | 7970 ft | 300 kts | 171° |
| 2026-04-25 11:49 | 49.93628 | 19.67913 | 8662 ft | 305 kts | 171° |
| 2026-04-25 11:49 | 49.91563 | 19.68609 | 9609 ft | 301 kts | 170° |
| 2026-04-25 11:49 | 49.89497 | 19.69309 | 10267 ft | 308 kts | 173° |
| 2026-04-25 11:50 | 49.87316 | 19.69238 | 10424 ft | 323 kts | 201° |
| 2026-04-25 11:50 | 49.85237 | 19.67777 | 10660 ft | 337 kts | 213° |
| 2026-04-25 11:50 | 49.83188 | 19.65992 | 11093 ft | 347 kts | 214° |
| 2026-04-25 11:50 | 49.81084 | 19.64116 | 11808 ft | 350 kts | 215° |
| 2026-04-25 11:51 | 49.78966 | 19.62237 | 12597 ft | 352 kts | 215° |
| 2026-04-25 11:51 | 49.76825 | 19.60354 | 13358 ft | 356 kts | 214° |
| 2026-04-25 11:51 | 49.74658 | 19.58468 | 14085 ft | 359 kts | 214° |
| 2026-04-25 11:51 | 49.72472 | 19.56576 | 14818 ft | 360 kts | 214° |
| 2026-04-25 11:52 | 49.70275 | 19.54685 | 15581 ft | 363 kts | 214° |
| 2026-04-25 11:52 | 49.68058 | 19.52780 | 16283 ft | 367 kts | 214° |
| 2026-04-25 11:52 | 49.65850 | 19.50884 | 16980 ft | 369 kts | 214° |
| 2026-04-25 11:52 | 49.63597 | 19.48954 | 17725 ft | 371 kts | 214° |
| 2026-04-25 11:53 | 49.61327 | 19.47010 | 18381 ft | 375 kts | 214° |
| 2026-04-25 11:53 | 49.59054 | 19.45010 | 18973 ft | 378 kts | 215° |
| 2026-04-25 11:53 | 49.56777 | 19.42987 | 19642 ft | 378 kts | 216° |
| 2026-04-25 11:53 | 49.54490 | 19.40944 | 20230 ft | 381 kts | 216° |
| 2026-04-25 11:54 | 49.52187 | 19.38890 | 20820 ft | 384 kts | 216° |
| 2026-04-25 11:54 | 49.49868 | 19.36827 | 21413 ft | 386 kts | 216° |
| 2026-04-25 11:54 | 49.45219 | 19.32699 | 22568 ft | 391 kts | 216° |
| 2026-04-25 11:55 | 49.42852 | 19.30604 | 23138 ft | 394 kts | 217° |
| 2026-04-25 11:55 | 49.40475 | 19.28500 | 23671 ft | 396 kts | 217° |
| 2026-04-25 11:55 | 49.38075 | 19.26380 | 24091 ft | 399 kts | 217° |
| 2026-04-25 11:55 | 49.35659 | 19.24249 | 24544 ft | 402 kts | 217° |
| 2026-04-25 11:56 | 49.33226 | 19.22106 | 25001 ft | 404 kts | 217° |
| 2026-04-25 11:56 | 49.30786 | 19.19959 | 25428 ft | 406 kts | 217° |
| 2026-04-25 11:56 | 49.28361 | 19.17828 | 25834 ft | 408 kts | 217° |
| 2026-04-25 11:56 | 49.25888 | 19.15657 | 26221 ft | 411 kts | 217° |
| 2026-04-25 11:57 | 49.23396 | 19.13472 | 26648 ft | 414 kts | 217° |
| 2026-04-25 11:57 | 49.20893 | 19.11279 | 27057 ft | 416 kts | 217° |
| 2026-04-25 11:57 | 49.18372 | 19.09077 | 27429 ft | 418 kts | 217° |
| 2026-04-25 11:57 | 49.15842 | 19.06865 | 27836 ft | 421 kts | 217° |
| 2026-04-25 11:58 | 49.13294 | 19.04640 | 28213 ft | 423 kts | 217° |
| 2026-04-25 11:58 | 49.10735 | 19.02408 | 28582 ft | 425 kts | 217° |
| 2026-04-25 11:58 | 49.08158 | 19.00164 | 28950 ft | 427 kts | 217° |
| 2026-04-25 11:58 | 49.05570 | 18.97912 | 29268 ft | 429 kts | 217° |
| 2026-04-25 11:59 | 49.03005 | 18.95685 | 29645 ft | 431 kts | 217° |
| 2026-04-25 11:59 | 49.00396 | 18.93422 | 29996 ft | 433 kts | 217° |
| 2026-04-25 11:59 | 48.97772 | 18.91148 | 30278 ft | 435 kts | 217° |
| 2026-04-25 12:00 | 48.92488 | 18.86577 | 30865 ft | 437 kts | 217° |
| 2026-04-25 12:00 | 48.89845 | 18.84297 | 31271 ft | 436 kts | 217° |
| 2026-04-25 12:00 | 48.84535 | 18.79897 | 32002 ft | 436 kts | 214° |
| 2026-04-25 12:01 | 48.81808 | 18.77847 | 32292 ft | 438 kts | 213° |
| 2026-04-25 12:01 | 48.79097 | 18.75865 | 32656 ft | 437 kts | 213° |
| 2026-04-25 12:01 | 48.76362 | 18.73878 | 33067 ft | 435 kts | 213° |
| 2026-04-25 12:01 | 48.73636 | 18.71894 | 33430 ft | 434 kts | 213° |
| 2026-04-25 12:02 | 48.68209 | 18.67914 | 34081 ft | 433 kts | 213° |
| 2026-04-25 12:02 | 48.65505 | 18.65920 | 34351 ft | 432 kts | 213° |
| 2026-04-25 12:02 | 48.62810 | 18.63932 | 34661 ft | 431 kts | 213° |
| 2026-04-25 12:03 | 48.60119 | 18.61946 | 34902 ft | 430 kts | 213° |
| 2026-04-25 12:03 | 48.57429 | 18.59960 | 35137 ft | 430 kts | 213° |
| 2026-04-25 12:03 | 48.54783 | 18.58010 | 35418 ft | 429 kts | 213° |
| 2026-04-25 12:03 | 48.52100 | 18.56036 | 35686 ft | 429 kts | 213° |
| 2026-04-25 12:04 | 48.49423 | 18.54069 | 35927 ft | 429 kts | 213° |
| 2026-04-25 12:04 | 48.46740 | 18.52100 | 36155 ft | 429 kts | 213° |
| 2026-04-25 12:04 | 48.44056 | 18.50132 | 36409 ft | 428 kts | 212° |
| 2026-04-25 12:04 | 48.41385 | 18.48179 | 36699 ft | 427 kts | 212° |
| 2026-04-25 12:05 | 48.38714 | 18.46226 | 36941 ft | 427 kts | 212° |
| 2026-04-25 12:05 | 48.36044 | 18.44276 | 37163 ft | 427 kts | 212° |
| 2026-04-25 12:05 | 48.33372 | 18.42327 | 37386 ft | 426 kts | 212° |
| 2026-04-25 12:05 | 48.30707 | 18.40384 | 37639 ft | 426 kts | 212° |
| 2026-04-25 12:06 | 48.28081 | 18.38474 | 37873 ft | 425 kts | 212° |
| 2026-04-25 12:06 | 48.25412 | 18.36534 | 37982 ft | 426 kts | 212° |
| 2026-04-25 12:06 | 48.20041 | 18.32632 | 38017 ft | 430 kts | 212° |
| 2026-04-25 12:07 | 48.14664 | 18.28742 | 38006 ft | 428 kts | 212° |
| 2026-04-25 12:07 | 48.09315 | 18.24882 | 38003 ft | 425 kts | 212° |
| 2026-04-25 12:08 | 48.04031 | 18.21075 | 37994 ft | 423 kts | 212° |
| 2026-04-25 12:08 | 47.98734 | 18.17266 | 38008 ft | 423 kts | 212° |
| 2026-04-25 12:09 | 47.93424 | 18.13455 | 38023 ft | 424 kts | 212° |
| 2026-04-25 12:09 | 47.88085 | 18.09631 | 38025 ft | 427 kts | 212° |
| 2026-04-25 12:10 | 47.82717 | 18.05798 | 38015 ft | 430 kts | 212° |
| 2026-04-25 12:10 | 47.77346 | 18.01972 | 38025 ft | 432 kts | 212° |
| 2026-04-25 12:11 | 47.71902 | 17.98103 | 38026 ft | 435 kts | 212° |
| 2026-04-25 12:11 | 47.66433 | 17.94226 | 38019 ft | 436 kts | 211° |
| 2026-04-25 12:12 | 47.61878 | 17.91004 | 38019 ft | 436 kts | 211° |
| 2026-04-25 12:12 | 47.55514 | 17.86514 | 38020 ft | 435 kts | 211° |
| 2026-04-25 12:13 | 47.50056 | 17.82672 | 38023 ft | 434 kts | 211° |
| 2026-04-25 12:13 | 47.44612 | 17.78849 | 38021 ft | 432 kts | 211° |
| 2026-04-25 12:14 | 47.39193 | 17.75052 | 38021 ft | 430 kts | 211° |
| 2026-04-25 12:14 | 47.33827 | 17.71299 | 38021 ft | 429 kts | 211° |
| 2026-04-25 12:15 | 47.28442 | 17.67542 | 38020 ft | 428 kts | 211° |
| 2026-04-25 12:15 | 47.23066 | 17.63799 | 38021 ft | 427 kts | 211° |
| 2026-04-25 12:16 | 47.17701 | 17.60072 | 38022 ft | 426 kts | 211° |
| 2026-04-25 12:16 | 47.12376 | 17.56381 | 38029 ft | 426 kts | 211° |
| 2026-04-25 12:17 | 47.07017 | 17.52675 | 38013 ft | 426 kts | 211° |
| 2026-04-25 12:17 | 47.01651 | 17.48973 | 38025 ft | 426 kts | 211° |
| 2026-04-25 12:18 | 46.96284 | 17.45279 | 38027 ft | 427 kts | 211° |
| 2026-04-25 12:18 | 46.90911 | 17.41588 | 38011 ft | 427 kts | 211° |
| 2026-04-25 12:19 | 46.82887 | 17.36092 | 38023 ft | 426 kts | 211° |
| 2026-04-25 12:20 | 46.77512 | 17.32421 | 38020 ft | 427 kts | 211° |
| 2026-04-25 12:20 | 46.72136 | 17.28757 | 38017 ft | 427 kts | 211° |
| 2026-04-25 12:21 | 46.66789 | 17.25120 | 38015 ft | 427 kts | 211° |
| 2026-04-25 12:21 | 46.61410 | 17.21470 | 38022 ft | 426 kts | 211° |
| 2026-04-25 12:22 | 46.56032 | 17.17830 | 38024 ft | 426 kts | 211° |
| 2026-04-25 12:22 | 46.50646 | 17.14195 | 38019 ft | 427 kts | 211° |
| 2026-04-25 12:23 | 46.45268 | 17.10575 | 38016 ft | 426 kts | 210° |
| 2026-04-25 12:23 | 46.39926 | 17.06983 | 38029 ft | 426 kts | 210° |
| 2026-04-25 12:24 | 46.34550 | 17.03365 | 38026 ft | 426 kts | 210° |
| 2026-04-25 12:24 | 46.29163 | 16.99751 | 38009 ft | 427 kts | 210° |
| 2026-04-25 12:25 | 46.23768 | 16.96167 | 38024 ft | 427 kts | 207° |
| 2026-04-25 12:25 | 46.18181 | 16.93275 | 38032 ft | 431 kts | 203° |
| 2026-04-25 12:26 | 46.12475 | 16.90611 | 38026 ft | 431 kts | 203° |
| 2026-04-25 12:26 | 46.06773 | 16.87927 | 38025 ft | 431 kts | 203° |
| 2026-04-25 12:27 | 46.01121 | 16.85225 | 38035 ft | 431 kts | 203° |
| 2026-04-25 12:27 | 45.95429 | 16.82487 | 38035 ft | 432 kts | 203° |
| 2026-04-25 12:28 | 45.89726 | 16.79743 | 38022 ft | 432 kts | 203° |
| 2026-04-25 12:28 | 45.84022 | 16.77006 | 38036 ft | 433 kts | 203° |
| 2026-04-25 12:29 | 45.78303 | 16.74269 | 38032 ft | 434 kts | 203° |
| 2026-04-25 12:29 | 45.72614 | 16.71552 | 38019 ft | 434 kts | 202° |
| 2026-04-25 12:30 | 45.67814 | 16.69264 | 38030 ft | 434 kts | 202° |
| 2026-04-25 12:30 | 45.61145 | 16.66093 | 38036 ft | 435 kts | 202° |
| 2026-04-25 12:31 | 45.55401 | 16.63368 | 38036 ft | 435 kts | 202° |
| 2026-04-25 12:31 | 45.49689 | 16.60664 | 38027 ft | 435 kts | 202° |
| 2026-04-25 12:32 | 45.43943 | 16.57950 | 38030 ft | 435 kts | 202° |
| 2026-04-25 12:32 | 45.38203 | 16.55244 | 38030 ft | 435 kts | 202° |
| 2026-04-25 12:33 | 45.32464 | 16.52544 | 38020 ft | 434 kts | 202° |
| 2026-04-25 12:33 | 45.26773 | 16.49873 | 38025 ft | 433 kts | 202° |
| 2026-04-25 12:34 | 45.21048 | 16.47191 | 38033 ft | 433 kts | 202° |
| 2026-04-25 12:34 | 45.15324 | 16.44515 | 38009 ft | 433 kts | 201° |
| 2026-04-25 12:35 | 45.09603 | 16.41847 | 38026 ft | 433 kts | 201° |
| 2026-04-25 12:35 | 45.03875 | 16.39181 | 38018 ft | 434 kts | 201° |
| 2026-04-25 12:36 | 44.98181 | 16.36536 | 38016 ft | 434 kts | 201° |
| 2026-04-25 12:36 | 44.92444 | 16.33877 | 38023 ft | 434 kts | 201° |
| 2026-04-25 12:37 | 44.86706 | 16.31223 | 38024 ft | 434 kts | 201° |
| 2026-04-25 12:37 | 44.80960 | 16.28571 | 38023 ft | 435 kts | 201° |
| 2026-04-25 12:38 | 44.75243 | 16.25938 | 38016 ft | 435 kts | 201° |
| 2026-04-25 12:38 | 44.69488 | 16.23293 | 38027 ft | 436 kts | 201° |
| 2026-04-25 12:39 | 44.63720 | 16.20647 | 38017 ft | 436 kts | 201° |
| 2026-04-25 12:39 | 44.57951 | 16.18007 | 38024 ft | 436 kts | 200° |
| 2026-04-25 12:40 | 44.52216 | 16.15387 | 38031 ft | 437 kts | 200° |
| 2026-04-25 12:40 | 44.46443 | 16.12756 | 38031 ft | 437 kts | 200° |
| 2026-04-25 12:41 | 44.40660 | 16.10124 | 38017 ft | 437 kts | 200° |
| 2026-04-25 12:41 | 44.34881 | 16.07500 | 38034 ft | 436 kts | 200° |
| 2026-04-25 12:41 | 44.31991 | 16.06191 | 37834 ft | 440 kts | 200° |
| 2026-04-25 12:42 | 44.29067 | 16.04867 | 37368 ft | 441 kts | 200° |
| 2026-04-25 12:42 | 44.28119 | 16.04439 | 37188 ft | 440 kts | 200° |
| 2026-04-25 12:42 | 44.23321 | 16.02272 | 36514 ft | 432 kts | 200° |
| 2026-04-25 12:42 | 44.20470 | 16.00987 | 36102 ft | 428 kts | 200° |
| 2026-04-25 12:43 | 44.17651 | 15.99717 | 35713 ft | 424 kts | 199° |
| 2026-04-25 12:43 | 44.14856 | 15.98461 | 35323 ft | 420 kts | 199° |
| 2026-04-25 12:43 | 44.09333 | 15.95975 | 34554 ft | 414 kts | 200° |
| 2026-04-25 12:44 | 44.06603 | 15.94747 | 34159 ft | 411 kts | 200° |
| 2026-04-25 12:44 | 44.03932 | 15.93551 | 33746 ft | 408 kts | 199° |
| 2026-04-25 12:44 | 43.98566 | 15.91149 | 32957 ft | 401 kts | 199° |
| 2026-04-25 12:45 | 43.95924 | 15.89967 | 32573 ft | 398 kts | 200° |
| 2026-04-25 12:45 | 43.93302 | 15.88794 | 32202 ft | 395 kts | 200° |
| 2026-04-25 12:45 | 43.88112 | 15.86477 | 31467 ft | 389 kts | 199° |
| 2026-04-25 12:46 | 43.85547 | 15.85331 | 31091 ft | 387 kts | 199° |
| 2026-04-25 12:46 | 43.83029 | 15.84209 | 30745 ft | 384 kts | 199° |
| 2026-04-25 12:46 | 43.80491 | 15.83079 | 30390 ft | 382 kts | 199° |
| 2026-04-25 12:46 | 43.77963 | 15.81955 | 30018 ft | 380 kts | 198° |
| 2026-04-25 12:47 | 43.75453 | 15.80840 | 29600 ft | 378 kts | 199° |
| 2026-04-25 12:47 | 43.72958 | 15.79733 | 29208 ft | 375 kts | 199° |
| 2026-04-25 12:47 | 43.70490 | 15.78639 | 28846 ft | 371 kts | 199° |
| 2026-04-25 12:47 | 43.68038 | 15.77553 | 28464 ft | 368 kts | 199° |
| 2026-04-25 12:48 | 43.65611 | 15.76479 | 28108 ft | 365 kts | 199° |
| 2026-04-25 12:48 | 43.63229 | 15.75426 | 27736 ft | 363 kts | 199° |
| 2026-04-25 12:48 | 43.60837 | 15.74369 | 27375 ft | 360 kts | 199° |
| 2026-04-25 12:48 | 43.58454 | 15.73317 | 27024 ft | 358 kts | 199° |
| 2026-04-25 12:49 | 43.56093 | 15.72275 | 26667 ft | 355 kts | 199° |
| 2026-04-25 12:49 | 43.53746 | 15.71241 | 26314 ft | 353 kts | 199° |
| 2026-04-25 12:49 | 43.51409 | 15.70211 | 25961 ft | 351 kts | 199° |
| 2026-04-25 12:49 | 43.49087 | 15.69189 | 25613 ft | 350 kts | 199° |
| 2026-04-25 12:50 | 43.46776 | 15.68173 | 25263 ft | 348 kts | 199° |
| 2026-04-25 12:50 | 43.44473 | 15.67161 | 24919 ft | 347 kts | 199° |
| 2026-04-25 12:50 | 43.42211 | 15.66168 | 24580 ft | 345 kts | 200° |
| 2026-04-25 12:50 | 43.39924 | 15.65165 | 24234 ft | 344 kts | 200° |
| 2026-04-25 12:51 | 43.37646 | 15.64166 | 23880 ft | 344 kts | 200° |
| 2026-04-25 12:51 | 43.35371 | 15.63169 | 23511 ft | 343 kts | 200° |
| 2026-04-25 12:51 | 43.33100 | 15.62176 | 23119 ft | 342 kts | 200° |
| 2026-04-25 12:51 | 43.30839 | 15.61187 | 22752 ft | 340 kts | 200° |
| 2026-04-25 12:52 | 43.28596 | 15.60207 | 22394 ft | 337 kts | 200° |
| 2026-04-25 12:52 | 43.26368 | 15.59234 | 22049 ft | 335 kts | 200° |
| 2026-04-25 12:52 | 43.24179 | 15.58279 | 21711 ft | 333 kts | 200° |
| 2026-04-25 12:52 | 43.21979 | 15.57320 | 21382 ft | 331 kts | 200° |
| 2026-04-25 12:53 | 43.19791 | 15.56367 | 21050 ft | 329 kts | 200° |
| 2026-04-25 12:53 | 43.17611 | 15.55418 | 20717 ft | 327 kts | 200° |
| 2026-04-25 12:53 | 43.15445 | 15.54475 | 20381 ft | 326 kts | 200° |
| 2026-04-25 12:53 | 43.13291 | 15.53539 | 20055 ft | 324 kts | 200° |
| 2026-04-25 12:54 | 43.11142 | 15.52605 | 19724 ft | 323 kts | 200° |
| 2026-04-25 12:54 | 43.09007 | 15.51679 | 19410 ft | 322 kts | 200° |
| 2026-04-25 12:54 | 43.06874 | 15.50754 | 19076 ft | 321 kts | 200° |
| 2026-04-25 12:54 | 43.04780 | 15.49846 | 18754 ft | 320 kts | 200° |
| 2026-04-25 12:55 | 43.02661 | 15.48928 | 18428 ft | 319 kts | 200° |
| 2026-04-25 12:55 | 43.01947 | 15.48618 | 18305 ft | 319 kts | 200° |
| 2026-04-25 12:55 | 42.98438 | 15.47099 | 17704 ft | 317 kts | 200° |
| 2026-04-25 12:55 | 42.96339 | 15.46192 | 17363 ft | 316 kts | 199° |
| 2026-04-25 12:56 | 42.94252 | 15.45291 | 17036 ft | 314 kts | 199° |
| 2026-04-25 12:56 | 42.92196 | 15.44337 | 16871 ft | 309 kts | 207° |
| 2026-04-25 12:56 | 42.90493 | 15.42684 | 16870 ft | 302 kts | 228° |
| 2026-04-25 12:56 | 42.89286 | 15.40420 | 16862 ft | 291 kts | 241° |
| 2026-04-25 12:57 | 42.88295 | 15.38081 | 16843 ft | 279 kts | 242° |
| 2026-04-25 12:57 | 42.87362 | 15.35806 | 16725 ft | 271 kts | 243° |
| 2026-04-25 12:57 | 42.86448 | 15.33574 | 16452 ft | 270 kts | 243° |
| 2026-04-25 12:57 | 42.85525 | 15.31332 | 16037 ft | 274 kts | 242° |
| 2026-04-25 12:58 | 42.84559 | 15.28997 | 15138 ft | 295 kts | 242° |
| 2026-04-25 12:58 | 42.83517 | 15.26494 | 14480 ft | 308 kts | 242° |
| 2026-04-25 12:58 | 42.82466 | 15.23986 | 14126 ft | 308 kts | 241° |
| 2026-04-25 12:58 | 42.81404 | 15.21459 | 13835 ft | 306 kts | 241° |
| 2026-04-25 12:59 | 42.80348 | 15.18955 | 13484 ft | 305 kts | 241° |
| 2026-04-25 12:59 | 42.79293 | 15.16456 | 13127 ft | 303 kts | 241° |
| 2026-04-25 12:59 | 42.78245 | 15.13976 | 12797 ft | 302 kts | 241° |
| 2026-04-25 12:59 | 42.77203 | 15.11511 | 12473 ft | 300 kts | 241° |
| 2026-04-25 13:00 | 42.76164 | 15.09057 | 12151 ft | 298 kts | 242° |
| 2026-04-25 13:00 | 42.75829 | 15.08266 | 12055 ft | 297 kts | 242° |
| 2026-04-25 13:00 | 42.74118 | 15.04230 | 11503 ft | 295 kts | 242° |
| 2026-04-25 13:00 | 42.73093 | 15.01815 | 11186 ft | 294 kts | 242° |
| 2026-04-25 13:01 | 42.72075 | 14.99417 | 10869 ft | 292 kts | 242° |
| 2026-04-25 13:01 | 42.71055 | 14.97015 | 10565 ft | 291 kts | 242° |
| 2026-04-25 13:01 | 42.70050 | 14.94652 | 10281 ft | 289 kts | 242° |
| 2026-04-25 13:01 | 42.69049 | 14.92302 | 10008 ft | 287 kts | 242° |
| 2026-04-25 13:02 | 42.68053 | 14.89968 | 9802 ft | 281 kts | 242° |
| 2026-04-25 13:02 | 42.67106 | 14.87712 | 9750 ft | 269 kts | 243° |
| 2026-04-25 13:02 | 42.66210 | 14.85547 | 9738 ft | 257 kts | 243° |
| 2026-04-25 13:02 | 42.65367 | 14.83506 | 9732 ft | 245 kts | 243° |
| 2026-04-25 13:03 | 42.64554 | 14.81540 | 9736 ft | 235 kts | 243° |
| 2026-04-25 13:03 | 42.63761 | 14.79620 | 9743 ft | 233 kts | 243° |
| 2026-04-25 13:03 | 42.62962 | 14.77690 | 9757 ft | 235 kts | 243° |
| 2026-04-25 13:03 | 42.62158 | 14.75754 | 9749 ft | 235 kts | 243° |
| 2026-04-25 13:04 | 42.61354 | 14.73819 | 9561 ft | 235 kts | 243° |
| 2026-04-25 13:04 | 42.60554 | 14.71876 | 9199 ft | 238 kts | 245° |
| 2026-04-25 13:04 | 42.59911 | 14.69757 | 8430 ft | 257 kts | 253° |
| 2026-04-25 13:04 | 42.59515 | 14.68185 | 8110 ft | 262 kts | 253° |
| 2026-04-25 13:05 | 42.58728 | 14.65070 | 7647 ft | 264 kts | 252° |
| 2026-04-25 13:05 | 42.58112 | 14.62710 | 7278 ft | 266 kts | 252° |
| 2026-04-25 13:05 | 42.57483 | 14.60337 | 6851 ft | 268 kts | 252° |
| 2026-04-25 13:05 | 42.56852 | 14.57973 | 6373 ft | 267 kts | 252° |
| 2026-04-25 13:06 | 42.56437 | 14.56414 | 6190 ft | 262 kts | 252° |
| 2026-04-25 13:06 | 42.55830 | 14.54113 | 6114 ft | 258 kts | 252° |
| 2026-04-25 13:06 | 42.55378 | 14.50975 | 5754 ft | 253 kts | 280° |
| 2026-04-25 13:06 | 42.55692 | 14.49492 | 5733 ft | 244 kts | 292° |
| 2026-04-25 13:07 | 42.56934 | 14.46919 | 5197 ft | 249 kts | 309° |
| 2026-04-25 13:07 | 42.58022 | 14.45078 | 4870 ft | 250 kts | 308° |
| 2026-04-25 13:07 | 42.59107 | 14.43217 | 4398 ft | 253 kts | 308° |
| 2026-04-25 13:07 | 42.59842 | 14.41946 | 4063 ft | 253 kts | 307° |
| 2026-04-25 13:08 | 42.60664 | 14.39041 | 3381 ft | 255 kts | 269° |
| 2026-04-25 13:08 | 42.60467 | 14.37481 | 3062 ft | 255 kts | 249° |
| 2026-04-25 13:08 | 42.59536 | 14.35455 | 2570 ft | 254 kts | 225° |
| 2026-04-25 13:08 | 42.58194 | 14.33895 | 2131 ft | 253 kts | 217° |
| 2026-04-25 13:09 | 42.56400 | 14.32041 | 2009 ft | 237 kts | 216° |
| 2026-04-25 13:09 | 42.55532 | 14.31147 | 1986 ft | 225 kts | 216° |
| 2026-04-25 13:09 | 42.53957 | 14.29520 | 1983 ft | 205 kts | 217° |
| 2026-04-25 13:09 | 42.53209 | 14.28746 | 1993 ft | 195 kts | 216° |
| 2026-04-25 13:10 | 42.52141 | 14.27640 | 2016 ft | 196 kts | 217° |
| 2026-04-25 13:10 | 42.51049 | 14.26509 | 1793 ft | 196 kts | 216° |
| 2026-04-25 13:10 | 42.49984 | 14.25406 | 1524 ft | 188 kts | 216° |
| 2026-04-25 13:10 | 42.48982 | 14.24367 | 1286 ft | 175 kts | 216° |
| 2026-04-25 13:11 | 42.48047 | 14.23398 | 1075 ft | 165 kts | 215° |
| 2026-04-25 13:11 | 42.46891 | 14.22200 | 839 ft | 154 kts | 216° |
| 2026-04-25 13:11 | 42.46320 | 14.21610 | 682 ft | 153 kts | 216° |
| 2026-04-25 13:11 | 42.45468 | 14.20725 | 465 ft | 155 kts | 216° |
| 2026-04-25 13:12 | 42.44631 | 14.19859 | 277 ft | 152 kts | 216° |
| 2026-04-25 13:12 | 42.43799 | 14.18995 | 90 ft | 149 kts | 216° |
| 2026-04-25 13:12 | 42.43028 | 14.18201 | 41 ft | 123 kts | 217° |
| 2026-04-25 13:12 | 42.42633 | 14.17787 | 46 ft | 95 kts | 218° |
| 2026-04-25 13:13 | 42.42116 | 14.17321 | 44 ft | 53 kts | 209° |
| 2026-04-25 13:13 | 42.41931 | 14.17113 | 48 ft | 0 kts | 270° |
| 2026-04-25 13:13 | 42.41941 | 14.17105 | 47 ft | 2 kts | 360° |
| 2026-04-25 13:13 | 42.41964 | 14.17135 | 46 ft | 14 kts | 43° |
| 2026-04-25 13:14 | 42.42036 | 14.17224 | 44 ft | 14 kts | 40° |
| 2026-04-25 13:14 | 42.42108 | 14.17306 | 44 ft | 13 kts | 40° |
| 2026-04-25 13:14 | 42.42177 | 14.17385 | 42 ft | 13 kts | 40° |
| 2026-04-25 13:14 | 42.42246 | 14.17460 | 44 ft | 13 kts | 46° |
| 2026-04-25 13:15 | 42.42270 | 14.17569 | 42 ft | 12 kts | 85° |
| 2026-04-25 13:15 | 42.42278 | 14.17682 | 44 ft | 12 kts | 78° |
| 2026-04-25 13:15 | 42.42332 | 14.17762 | 44 ft | 12 kts | 37° |
| 2026-04-25 13:15 | 42.42421 | 14.17855 | 43 ft | 22 kts | 37° |
| 2026-04-25 13:16 | 42.42568 | 14.18007 | 44 ft | 31 kts | 37° |
| 2026-04-25 13:16 | 42.42728 | 14.18172 | 44 ft | 28 kts | 37° |
| 2026-04-25 13:16 | 42.42869 | 14.18319 | 44 ft | 21 kts | 37° |
| 2026-04-25 13:16 | 42.42975 | 14.18428 | 42 ft | 10 kts | 37° |
| 2026-04-25 13:17 | 42.43016 | 14.18501 | 44 ft | 10 kts | 77° |
| 2026-04-25 13:17 | 42.43025 | 14.18592 | 44 ft | 10 kts | 81° |
| 2026-04-25 13:17 | 42.43064 | 14.18661 | 44 ft | 9 kts | 37° |
| 2026-04-25 13:17 | 42.43083 | 14.18723 | 44 ft | 5 kts | 114° |
| 2026-04-25 13:18 | 42.43065 | 14.18754 | 43 ft | 2 kts | 129° |
| 2026-04-25 13:18 | 42.43063 | 14.18758 | 43 ft | 0 kts | 128° |